sensor_id;sensor_type;location;lat;lon;timestamp;pressure;altitude;pressure_sealevel;temperature;humidity
72636;BME280;60679;48.888;15.544;2023-03-31T00:01:46;95742.81;;;6.22;74.76
72636;BME280;60679;48.888;15.544;2023-03-31T00:04:12;95737.47;;;6.22;74.63
72636;BME280;60679;48.888;15.544;2023-03-31T00:06:39;95734.16;;;6.27;74.62
72636;BME280;60679;48.888;15.544;2023-03-31T00:09:14;95721.81;;;6.19;74.47
72636;BME280;60679;48.888;15.544;2023-03-31T00:11:43;95719.94;;;6.20;74.69
72636;BME280;60679;48.888;15.544;2023-03-31T00:14:09;95710.47;;;6.17;74.79
72636;BME280;60679;48.888;15.544;2023-03-31T00:16:36;95722.81;;;6.25;74.51
72636;BME280;60679;48.888;15.544;2023-03-31T00:19:02;95709.84;;;6.15;74.65
72636;BME280;60679;48.888;15.544;2023-03-31T00:21:28;95719.34;;;6.18;74.75
72636;BME280;60679;48.888;15.544;2023-03-31T00:24:08;95715.00;;;6.17;74.61
72636;BME280;60679;48.888;15.544;2023-03-31T00:26:36;95708.63;;;6.18;74.84
72636;BME280;60679;48.888;15.544;2023-03-31T00:29:03;95703.69;;;6.15;74.80
72636;BME280;60679;48.888;15.544;2023-03-31T00:31:29;95706.75;;;6.18;74.83
72636;BME280;60679;48.888;15.544;2023-03-31T00:33:55;95705.72;;;6.19;74.83
72636;BME280;60679;48.888;15.544;2023-03-31T00:36:21;95701.00;;;6.15;74.71
72636;BME280;60679;48.888;15.544;2023-03-31T00:38:55;95688.41;;;6.15;74.84
72636;BME280;60679;48.888;15.544;2023-03-31T00:41:23;95706.53;;;6.20;74.73
72636;BME280;60679;48.888;15.544;2023-03-31T00:46:34;95716.03;;;6.16;74.76
72636;BME280;60679;48.888;15.544;2023-03-31T00:49:02;95703.91;;;5.87;74.34
72636;BME280;60679;48.888;15.544;2023-03-31T00:51:31;95696.91;;;5.60;75.15
72636;BME280;60679;48.888;15.544;2023-03-31T00:54:00;95698.38;;;5.56;74.90
72636;BME280;60679;48.888;15.544;2023-03-31T00:56:36;95693.81;;;5.56;75.02
72636;BME280;60679;48.888;15.544;2023-03-31T00:59:06;95690.13;;;5.51;75.25
72636;BME280;60679;48.888;15.544;2023-03-31T01:01:33;95696.94;;;5.47;75.31
72636;BME280;60679;48.888;15.544;2023-03-31T01:04:01;95693.03;;;5.36;75.29
72636;BME280;60679;48.888;15.544;2023-03-31T01:06:27;95702.69;;;5.24;75.21
72636;BME280;60679;48.888;15.544;2023-03-31T01:08:55;95692.16;;;5.09;75.13
72636;BME280;60679;48.888;15.544;2023-03-31T01:11:24;95688.03;;;4.94;75.26
72636;BME280;60679;48.888;15.544;2023-03-31T01:13:52;95675.44;;;4.75;75.17
72636;BME280;60679;48.888;15.544;2023-03-31T01:16:21;95677.47;;;4.59;75.34
72636;BME280;60679;48.888;15.544;2023-03-31T01:18:47;95677.41;;;4.46;75.39
72636;BME280;60679;48.888;15.544;2023-03-31T01:24:40;95662.53;;;4.24;75.55
72636;BME280;60679;48.888;15.544;2023-03-31T01:27:48;95658.75;;;4.12;75.66
72636;BME280;60679;48.888;15.544;2023-03-31T01:33:54;95653.19;;;4.00;75.86
72636;BME280;60679;48.888;15.544;2023-03-31T01:39:23;95641.53;;;4.15;75.90
72636;BME280;60679;48.888;15.544;2023-03-31T01:45:02;95633.47;;;4.75;75.94
72636;BME280;60679;48.888;15.544;2023-03-31T01:47:36;95628.38;;;5.13;75.64
72636;BME280;60679;48.888;15.544;2023-03-31T01:50:30;95626.28;;;5.28;75.64
72636;BME280;60679;48.888;15.544;2023-03-31T01:56:09;95625.47;;;5.34;75.38
72636;BME280;60679;48.888;15.544;2023-03-31T02:01:24;95623.44;;;5.30;75.46
72636;BME280;60679;48.888;15.544;2023-03-31T02:04:08;95616.41;;;5.35;75.38
72636;BME280;60679;48.888;15.544;2023-03-31T02:06:41;95619.09;;;5.35;75.36
72636;BME280;60679;48.888;15.544;2023-03-31T02:09:12;95612.72;;;5.36;75.43
72636;BME280;60679;48.888;15.544;2023-03-31T02:11:40;95611.91;;;5.36;75.36
72636;BME280;60679;48.888;15.544;2023-03-31T02:14:10;95610.66;;;5.38;75.41
72636;BME280;60679;48.888;15.544;2023-03-31T02:16:39;95608.59;;;5.40;75.69
72636;BME280;60679;48.888;15.544;2023-03-31T02:19:14;95610.66;;;5.32;75.59
72636;BME280;60679;48.888;15.544;2023-03-31T02:21:44;95599.56;;;5.21;75.55
72636;BME280;60679;48.888;15.544;2023-03-31T02:24:14;95595.84;;;5.03;75.47
72636;BME280;60679;48.888;15.544;2023-03-31T02:29:33;95600.38;;;4.76;75.66
72636;BME280;60679;48.888;15.544;2023-03-31T02:32:17;95589.22;;;4.66;76.09
72636;BME280;60679;48.888;15.544;2023-03-31T02:34:45;95590.91;;;4.74;75.78
72636;BME280;60679;48.888;15.544;2023-03-31T02:37:11;95576.50;;;4.68;75.91
72636;BME280;60679;48.888;15.544;2023-03-31T02:39:39;95569.72;;;4.65;75.67
72636;BME280;60679;48.888;15.544;2023-03-31T02:42:06;95557.97;;;4.53;75.75
72636;BME280;60679;48.888;15.544;2023-03-31T02:44:38;95565.97;;;4.47;75.97
72636;BME280;60679;48.888;15.544;2023-03-31T02:47:07;95555.91;;;4.42;76.10
72636;BME280;60679;48.888;15.544;2023-03-31T02:49:34;95556.50;;;4.44;76.36
72636;BME280;60679;48.888;15.544;2023-03-31T02:52:26;95566.78;;;4.47;75.97
72636;BME280;60679;48.888;15.544;2023-03-31T03:00:08;95553.25;;;4.62;75.96
72636;BME280;60679;48.888;15.544;2023-03-31T03:05:46;95544.41;;;4.68;75.71
72636;BME280;60679;48.888;15.544;2023-03-31T03:16:23;95539.03;;;5.01;75.82
72636;BME280;60679;48.888;15.544;2023-03-31T03:19:05;95533.28;;;5.04;75.85
72636;BME280;60679;48.888;15.544;2023-03-31T03:21:32;95530.84;;;5.02;76.18
72636;BME280;60679;48.888;15.544;2023-03-31T03:23:58;95523.00;;;5.07;76.03
72636;BME280;60679;48.888;15.544;2023-03-31T03:26:25;95518.06;;;4.98;nan
72636;BME280;60679;48.888;15.544;2023-03-31T03:28:53;95511.91;;;4.84;75.87
72636;BME280;60679;48.888;15.544;2023-03-31T03:31:19;95514.97;;;4.75;76.21
72636;BME280;60679;48.888;15.544;2023-03-31T03:33:50;95516.03;;;4.67;76.08
72636;BME280;60679;48.888;15.544;2023-03-31T03:36:15;95511.50;;;4.61;76.40
72636;BME280;60679;48.888;15.544;2023-03-31T03:38:44;95513.56;;;4.59;76.44
72636;BME280;60679;48.888;15.544;2023-03-31T03:41:09;95513.97;;;4.62;76.18
72636;BME280;60679;48.888;15.544;2023-03-31T03:43:35;95512.53;;;4.66;76.38
72636;BME280;60679;48.888;15.544;2023-03-31T03:46:01;95511.09;;;4.71;76.30
72636;BME280;60679;48.888;15.544;2023-03-31T03:48:26;95522.22;;;4.74;76.43
72636;BME280;60679;48.888;15.544;2023-03-31T03:50:52;95520.75;;;4.78;76.47
72636;BME280;60679;48.888;15.544;2023-03-31T03:53:18;95519.91;;;4.78;76.33
72636;BME280;60679;48.888;15.544;2023-03-31T03:55:44;95522.59;;;4.78;76.18
72636;BME280;60679;48.888;15.544;2023-03-31T03:58:10;95526.31;;;4.70;76.26
72636;BME280;60679;48.888;15.544;2023-03-31T04:00:35;95513.16;;;4.62;76.41
72636;BME280;60679;48.888;15.544;2023-03-31T04:03:02;95515.19;;;4.53;76.43
72636;BME280;60679;48.888;15.544;2023-03-31T04:05:28;95506.34;;;4.46;76.39
72636;BME280;60679;48.888;15.544;2023-03-31T04:07:53;95504.31;;;4.48;76.45
72636;BME280;60679;48.888;15.544;2023-03-31T04:10:18;95496.88;;;4.44;76.39
72636;BME280;60679;48.888;15.544;2023-03-31T04:12:44;95486.63;;;4.34;76.47
72636;BME280;60679;48.888;15.544;2023-03-31T04:15:09;95491.97;;;4.34;76.66
72636;BME280;60679;48.888;15.544;2023-03-31T04:17:35;95496.06;;;4.30;76.62
72636;BME280;60679;48.888;15.544;2023-03-31T04:20:06;95486.38;;;4.29;76.41
72636;BME280;60679;48.888;15.544;2023-03-31T04:22:33;95495.03;;;4.31;76.42
72636;BME280;60679;48.888;15.544;2023-03-31T04:25:06;95498.94;;;4.29;76.61
72636;BME280;60679;48.888;15.544;2023-03-31T04:27:40;95474.66;;;4.24;76.66
72636;BME280;60679;48.888;15.544;2023-03-31T04:30:15;95483.53;;;4.18;76.54
72636;BME280;60679;48.888;15.544;2023-03-31T04:32:53;95482.72;;;4.37;76.94
72636;BME280;60679;48.888;15.544;2023-03-31T04:35:21;95472.03;;;4.37;76.73
72636;BME280;60679;48.888;15.544;2023-03-31T04:37:48;95484.16;;;4.46;76.50
72636;BME280;60679;48.888;15.544;2023-03-31T04:40:17;95475.31;;;4.45;76.50
72636;BME280;60679;48.888;15.544;2023-03-31T04:42:43;95480.03;;;4.50;76.42
72636;BME280;60679;48.888;15.544;2023-03-31T04:45:11;95476.94;;;4.53;76.44
72636;BME280;60679;48.888;15.544;2023-03-31T04:47:39;95471.59;;;4.46;76.41
72636;BME280;60679;48.888;15.544;2023-03-31T04:50:08;95465.03;;;4.36;76.53
72636;BME280;60679;48.888;15.544;2023-03-31T04:52:35;95462.56;;;4.34;76.23
72636;BME280;60679;48.888;15.544;2023-03-31T04:55:01;95465.44;;;4.33;76.63
72636;BME280;60679;48.888;15.544;2023-03-31T04:57:27;95463.38;;;4.35;76.41
72636;BME280;60679;48.888;15.544;2023-03-31T05:00:14;95464.38;;;4.40;76.18
72636;BME280;60679;48.888;15.544;2023-03-31T05:02:49;95455.97;;;4.43;76.20
72636;BME280;60679;48.888;15.544;2023-03-31T05:05:15;95454.94;;;4.44;76.15
72636;BME280;60679;48.888;15.544;2023-03-31T05:07:43;95460.72;;;4.48;76.06
72636;BME280;60679;48.888;15.544;2023-03-31T05:10:09;95453.31;;;4.50;76.28
72636;BME280;60679;48.888;15.544;2023-03-31T05:12:37;95453.50;;;4.55;76.17
72636;BME280;60679;48.888;15.544;2023-03-31T05:15:07;95457.41;;;4.72;75.79
72636;BME280;60679;48.888;15.544;2023-03-31T05:17:33;95452.84;;;4.86;75.75
72636;BME280;60679;48.888;15.544;2023-03-31T05:20:00;95448.72;;;4.90;75.73
72636;BME280;60679;48.888;15.544;2023-03-31T05:22:26;95441.53;;;4.84;75.34
72636;BME280;60679;48.888;15.544;2023-03-31T05:24:52;95432.03;;;4.94;75.48
72636;BME280;60679;48.888;15.544;2023-03-31T05:27:19;95446.19;;;5.14;75.52
72636;BME280;60679;48.888;15.544;2023-03-31T05:29:50;95427.56;;;5.39;75.37
72636;BME280;60679;48.888;15.544;2023-03-31T05:32:15;95437.34;;;5.65;75.35
72636;BME280;60679;48.888;15.544;2023-03-31T05:34:40;95443.44;;;5.92;74.77
72636;BME280;60679;48.888;15.544;2023-03-31T05:37:07;95429.88;;;6.18;74.42
72636;BME280;60679;48.888;15.544;2023-03-31T05:39:32;95438.09;;;6.48;74.25
72636;BME280;60679;48.888;15.544;2023-03-31T05:41:59;95420.28;;;6.78;73.75
72636;BME280;60679;48.888;15.544;2023-03-31T05:44:29;95409.41;;;7.09;73.24
72636;BME280;60679;48.888;15.544;2023-03-31T05:46:55;95411.81;;;7.35;72.82
72636;BME280;60679;48.888;15.544;2023-03-31T05:49:20;95400.19;;;7.41;72.93
72636;BME280;60679;48.888;15.544;2023-03-31T05:51:46;95402.09;;;7.52;73.08
72636;BME280;60679;48.888;15.544;2023-03-31T05:54:12;95386.88;;;7.65;73.13
72636;BME280;60679;48.888;15.544;2023-03-31T05:56:37;95388.78;;;7.76;73.21
72636;BME280;60679;48.888;15.544;2023-03-31T05:59:03;95388.09;;;7.80;72.76
72636;BME280;60679;48.888;15.544;2023-03-31T06:01:28;95383.91;;;7.84;73.05
72636;BME280;60679;48.888;15.544;2023-03-31T06:03:54;95375.84;;;7.84;73.22
72636;BME280;60679;48.888;15.544;2023-03-31T06:06:20;95372.22;;;7.79;73.15
72636;BME280;60679;48.888;15.544;2023-03-31T06:08:46;95379.19;;;7.80;73.32
72636;BME280;60679;48.888;15.544;2023-03-31T06:11:17;95375.84;;;7.84;73.25
72636;BME280;60679;48.888;15.544;2023-03-31T06:13:44;95377.75;;;7.95;73.07
72636;BME280;60679;48.888;15.544;2023-03-31T06:16:11;95390.16;;;8.08;72.58
72636;BME280;60679;48.888;15.544;2023-03-31T06:18:36;95374.16;;;8.13;72.35
72636;BME280;60679;48.888;15.544;2023-03-31T06:21:02;95379.91;;;8.17;72.67
72636;BME280;60679;48.888;15.544;2023-03-31T06:23:28;95375.81;;;8.14;72.73
72636;BME280;60679;48.888;15.544;2023-03-31T06:25:53;95376.84;;;8.13;72.74
72636;BME280;60679;48.888;15.544;2023-03-31T06:28:23;95371.25;;;8.14;72.90
72636;BME280;60679;48.888;15.544;2023-03-31T06:30:48;95354.19;;;8.21;72.86
72636;BME280;60679;48.888;15.544;2023-03-31T06:33:14;95361.94;;;8.29;72.42
72636;BME280;60679;48.888;15.544;2023-03-31T06:35:40;95357.41;;;8.41;72.87
72636;BME280;60679;48.888;15.544;2023-03-31T06:38:06;95352.63;;;8.54;72.44
72636;BME280;60679;48.888;15.544;2023-03-31T06:40:31;95350.25;;;8.69;72.10
72636;BME280;60679;48.888;15.544;2023-03-31T06:42:58;95340.44;;;8.87;72.11
72636;BME280;60679;48.888;15.544;2023-03-31T06:45:24;95341.78;;;9.12;71.96
72636;BME280;60679;48.888;15.544;2023-03-31T06:47:50;95342.78;;;9.35;71.88
72636;BME280;60679;48.888;15.544;2023-03-31T06:50:15;95333.00;;;9.57;71.66
72636;BME280;60679;48.888;15.544;2023-03-31T06:52:41;95340.31;;;9.73;71.43
72636;BME280;60679;48.888;15.544;2023-03-31T06:55:07;95332.72;;;9.70;71.79
72636;BME280;60679;48.888;15.544;2023-03-31T06:57:33;95337.47;;;9.79;71.63
72636;BME280;60679;48.888;15.544;2023-03-31T06:59:59;95333.41;;;9.94;71.47
72636;BME280;60679;48.888;15.544;2023-03-31T07:02:27;95331.78;;;10.21;70.82
72636;BME280;60679;48.888;15.544;2023-03-31T07:04:52;95330.06;;;10.48;70.22
72636;BME280;60679;48.888;15.544;2023-03-31T07:07:18;95320.69;;;10.89;69.67
72636;BME280;60679;48.888;15.544;2023-03-31T07:09:43;95315.63;;;11.36;69.04
72636;BME280;60679;48.888;15.544;2023-03-31T07:12:09;95312.56;;;11.71;68.45
72636;BME280;60679;48.888;15.544;2023-03-31T07:14:34;95316.00;;;11.88;68.53
72636;BME280;60679;48.888;15.544;2023-03-31T07:17:03;95310.31;;;11.89;68.98
72636;BME280;60679;48.888;15.544;2023-03-31T07:19:28;95315.88;;;11.78;69.05
72636;BME280;60679;48.888;15.544;2023-03-31T07:21:54;95314.53;;;11.80;69.11
72636;BME280;60679;48.888;15.544;2023-03-31T07:24:21;95313.16;;;11.78;68.89
72636;BME280;60679;48.888;15.544;2023-03-31T07:26:46;95305.16;;;11.66;69.14
72636;BME280;60679;48.888;15.544;2023-03-31T07:29:11;95300.47;;;11.56;69.58
72636;BME280;60679;48.888;15.544;2023-03-31T07:31:37;95296.22;;;11.39;69.74
72636;BME280;60679;48.888;15.544;2023-03-31T07:34:03;95294.66;;;11.43;69.75
72636;BME280;60679;48.888;15.544;2023-03-31T07:36:29;95292.97;;;11.64;69.27
72636;BME280;60679;48.888;15.544;2023-03-31T07:38:55;95282.44;;;11.89;68.88
72636;BME280;60679;48.888;15.544;2023-03-31T07:41:21;95280.09;;;11.97;68.68
72636;BME280;60679;48.888;15.544;2023-03-31T07:43:48;95279.19;;;11.87;68.72
72636;BME280;60679;48.888;15.544;2023-03-31T07:46:19;95272.88;;;12.08;68.50
72636;BME280;60679;48.888;15.544;2023-03-31T07:48:46;95269.06;;;12.36;68.04
72636;BME280;60679;48.888;15.544;2023-03-31T07:51:19;95262.56;;;12.37;68.25
72636;BME280;60679;48.888;15.544;2023-03-31T07:53:45;95255.22;;;12.32;68.73
72636;BME280;60679;48.888;15.544;2023-03-31T07:56:11;95249.28;;;12.35;68.69
72636;BME280;60679;48.888;15.544;2023-03-31T07:58:37;95252.31;;;12.39;68.62
72636;BME280;60679;48.888;15.544;2023-03-31T08:01:03;95256.19;;;12.16;68.79
72636;BME280;60679;48.888;15.544;2023-03-31T08:03:28;95258.25;;;11.77;69.51
72636;BME280;60679;48.888;15.544;2023-03-31T08:05:56;95260.66;;;11.52;70.36
72636;BME280;60679;48.888;15.544;2023-03-31T08:08:21;95252.13;;;11.38;70.58
72636;BME280;60679;48.888;15.544;2023-03-31T08:10:47;95266.09;;;11.30;70.78
72636;BME280;60679;48.888;15.544;2023-03-31T08:13:12;95264.22;;;11.31;70.55
72636;BME280;60679;48.888;15.544;2023-03-31T08:15:38;95266.09;;;11.30;70.58
72636;BME280;60679;48.888;15.544;2023-03-31T08:18:04;95258.88;;;11.36;70.58
72636;BME280;60679;48.888;15.544;2023-03-31T08:20:30;95244.06;;;11.43;70.34
72636;BME280;60679;48.888;15.544;2023-03-31T08:22:55;95247.09;;;11.47;70.41
72636;BME280;60679;48.888;15.544;2023-03-31T08:25:21;95236.94;;;11.32;70.90
72636;BME280;60679;48.888;15.544;2023-03-31T08:27:48;95252.34;;;11.10;71.36
72636;BME280;60679;48.888;15.544;2023-03-31T08:30:16;95248.31;;;10.91;71.76
72636;BME280;60679;48.888;15.544;2023-03-31T08:32:42;95240.34;;;10.79;72.06
72636;BME280;60679;48.888;15.544;2023-03-31T08:35:08;95231.84;;;10.71;72.29
72636;BME280;60679;48.888;15.544;2023-03-31T08:37:34;95229.03;;;10.61;72.55
72636;BME280;60679;48.888;15.544;2023-03-31T08:40:06;95224.84;;;10.53;72.49
72636;BME280;60679;48.888;15.544;2023-03-31T08:42:43;95211.78;;;10.45;72.46
72636;BME280;60679;48.888;15.544;2023-03-31T08:47:48;95205.19;;;10.36;72.62
72636;BME280;60679;48.888;15.544;2023-03-31T08:50:18;95219.50;;;10.36;72.60
72636;BME280;60679;48.888;15.544;2023-03-31T08:52:55;95223.19;;;10.30;72.69
72636;BME280;60679;48.888;15.544;2023-03-31T08:55:32;95213.16;;;10.26;72.82
72636;BME280;60679;48.888;15.544;2023-03-31T08:58:05;95214.19;;;10.25;72.86
72636;BME280;60679;48.888;15.544;2023-03-31T09:00:39;95220.09;;;10.22;72.86
72636;BME280;60679;48.888;15.544;2023-03-31T09:03:20;95220.34;;;10.20;72.99
72636;BME280;60679;48.888;15.544;2023-03-31T09:08:43;95200.06;;;10.34;72.62
72636;BME280;60679;48.888;15.544;2023-03-31T09:11:13;95199.72;;;10.31;72.58
72636;BME280;60679;48.888;15.544;2023-03-31T09:16:36;95191.78;;;10.41;72.37
72636;BME280;60679;48.888;15.544;2023-03-31T09:19:17;95179.84;;;10.59;71.97
72636;BME280;60679;48.888;15.544;2023-03-31T09:21:48;95184.31;;;10.70;71.84
72636;BME280;60679;48.888;15.544;2023-03-31T09:27:02;95170.25;;;10.89;71.39
72636;BME280;60679;48.888;15.544;2023-03-31T09:29:57;95163.84;;;11.49;70.02
72636;BME280;60679;48.888;15.544;2023-03-31T09:32:27;95168.84;;;11.94;68.80
72636;BME280;60679;48.888;15.544;2023-03-31T09:34:58;95163.03;;;12.12;68.57
72636;BME280;60679;48.888;15.544;2023-03-31T09:37:29;95153.44;;;11.94;69.28
72636;BME280;60679;48.888;15.544;2023-03-31T09:39:57;95153.09;;;11.86;69.50
72636;BME280;60679;48.888;15.544;2023-03-31T09:42:23;95150.69;;;11.57;70.32
72636;BME280;60679;48.888;15.544;2023-03-31T09:44:49;95148.41;;;11.44;70.17
72636;BME280;60679;48.888;15.544;2023-03-31T09:47:20;95129.91;;;11.31;70.49
72636;BME280;60679;48.888;15.544;2023-03-31T09:49:48;95126.03;;;11.22;70.88
72636;BME280;60679;48.888;15.544;2023-03-31T09:54:54;95113.94;;;11.62;70.34
72636;BME280;60679;48.888;15.544;2023-03-31T09:57:28;95104.34;;;12.18;69.05
72636;BME280;60679;48.888;15.544;2023-03-31T10:00:03;95097.22;;;12.53;68.45
72636;BME280;60679;48.888;15.544;2023-03-31T10:02:35;95099.50;;;12.82;68.12
72636;BME280;60679;48.888;15.544;2023-03-31T10:05:03;95100.06;;;12.84;68.09
72636;BME280;60679;48.888;15.544;2023-03-31T10:07:31;95092.69;;;12.69;68.65
72636;BME280;60679;48.888;15.544;2023-03-31T10:09:57;95097.22;;;12.53;68.96
72636;BME280;60679;48.888;15.544;2023-03-31T10:12:26;95102.75;;;12.22;69.48
72636;BME280;60679;48.888;15.544;2023-03-31T10:14:54;95111.81;;;12.00;70.21
72636;BME280;60679;48.888;15.544;2023-03-31T10:17:34;95109.72;;;11.71;70.53
72636;BME280;60679;48.888;15.544;2023-03-31T10:20:16;95125.56;;;11.57;70.71
72636;BME280;60679;48.888;15.544;2023-03-31T10:22:43;95129.44;;;11.39;71.18
72636;BME280;60679;48.888;15.544;2023-03-31T10:25:22;95136.81;;;11.17;71.24
72636;BME280;60679;48.888;15.544;2023-03-31T10:27:52;95142.44;;;11.16;71.39
72636;BME280;60679;48.888;15.544;2023-03-31T10:30:34;95140.06;;;11.19;71.27
72636;BME280;60679;48.888;15.544;2023-03-31T10:33:12;95158.97;;;11.19;71.13
72636;BME280;60679;48.888;15.544;2023-03-31T10:35:38;95163.00;;;11.17;70.94
72636;BME280;60679;48.888;15.544;2023-03-31T10:38:22;95154.63;;;11.18;70.88
72636;BME280;60679;48.888;15.544;2023-03-31T10:40:57;95152.88;;;11.07;70.94
72636;BME280;60679;48.888;15.544;2023-03-31T10:45:53;95125.03;;;11.28;70.35
72636;BME280;60679;48.888;15.544;2023-03-31T10:50:53;95092.91;;;11.69;69.83
72636;BME280;60679;48.888;15.544;2023-03-31T10:53:19;95093.16;;;11.99;69.74
72636;BME280;60679;48.888;15.544;2023-03-31T11:09:26;94995.84;;;14.36;66.10
72636;BME280;60679;48.888;15.544;2023-03-31T11:12:45;94992.56;;;14.44;66.09
72636;BME280;60679;48.888;15.544;2023-03-31T11:15:30;94974.09;;;14.41;65.53
72636;BME280;60679;48.888;15.544;2023-03-31T11:21:05;94986.25;;;12.99;68.26
72636;BME280;60679;48.888;15.544;2023-03-31T11:24:22;95001.06;;;12.46;69.51
72636;BME280;60679;48.888;15.544;2023-03-31T11:27:07;94998.50;;;12.14;70.22
72636;BME280;60679;48.888;15.544;2023-03-31T11:29:59;94981.22;;;12.15;69.85
72636;BME280;60679;48.888;15.544;2023-03-31T11:32:36;94974.44;;;12.12;70.03
72636;BME280;60679;48.888;15.544;2023-03-31T11:35:48;94969.97;;;11.81;70.32
72636;BME280;60679;48.888;15.544;2023-03-31T11:41:18;94966.19;;;11.40;71.21
72636;BME280;60679;48.888;15.544;2023-03-31T11:43:47;94974.44;;;11.24;71.53
72636;BME280;60679;48.888;15.544;2023-03-31T11:48:52;94954.59;;;11.03;72.05
72636;BME280;60679;48.888;15.544;2023-03-31T11:51:32;94961.03;;;10.97;72.38
72636;BME280;60679;48.888;15.544;2023-03-31T11:54:04;94964.56;;;11.02;72.27
72636;BME280;60679;48.888;15.544;2023-03-31T11:56:38;94958.16;;;11.09;72.27
72636;BME280;60679;48.888;15.544;2023-03-31T11:59:06;94957.09;;;11.15;72.04
72636;BME280;60679;48.888;15.544;2023-03-31T12:04:30;94950.72;;;11.31;71.91
72636;BME280;60679;48.888;15.544;2023-03-31T12:07:11;94945.84;;;11.70;70.99
72636;BME280;60679;48.888;15.544;2023-03-31T12:10:02;94928.53;;;12.68;69.07
72636;BME280;60679;48.888;15.544;2023-03-31T12:12:41;94924.34;;;13.86;66.69
72636;BME280;60679;48.888;15.544;2023-03-31T12:15:24;94923.16;;;14.13;66.83
72636;BME280;60679;48.888;15.544;2023-03-31T12:18:19;94911.84;;;15.22;64.61
72636;BME280;60679;48.888;15.544;2023-03-31T12:20:54;94881.31;;;23.48;48.55
72636;BME280;60679;48.888;15.544;2023-03-31T12:23:42;94874.97;;;29.79;40.85
72636;BME280;60679;48.888;15.544;2023-03-31T12:26:28;94866.78;;;31.28;40.52
72636;BME280;60679;48.888;15.544;2023-03-31T12:28:59;94861.66;;;27.12;46.56
72636;BME280;60679;48.888;15.544;2023-03-31T12:31:35;94868.63;;;24.74;49.83
72636;BME280;60679;48.888;15.544;2023-03-31T12:34:11;94858.53;;;24.41;49.29
72636;BME280;60679;48.888;15.544;2023-03-31T12:45:29;94792.84;;;36.70;33.88
72636;BME280;60679;48.888;15.544;2023-03-31T12:48:10;94777.78;;;32.10;40.03
72636;BME280;60679;48.888;15.544;2023-03-31T12:56:23;94775.38;;;34.52;36.05
72636;BME280;60679;48.888;15.544;2023-03-31T12:58:48;94772.31;;;34.36;36.55
72636;BME280;60679;48.888;15.544;2023-03-31T13:01:22;94758.06;;;34.68;36.67
72636;BME280;60679;48.888;15.544;2023-03-31T13:04:07;94756.22;;;41.11;29.72
72636;BME280;60679;48.888;15.544;2023-03-31T13:09:05;94763.84;;;41.36;29.23
72636;BME280;60679;48.888;15.544;2023-03-31T13:14:10;94740.97;;;35.64;37.41
72636;BME280;60679;48.888;15.544;2023-03-31T13:16:38;94752.06;;;27.37;48.30
72636;BME280;60679;48.888;15.544;2023-03-31T13:19:05;94754.75;;;30.51;42.25
72636;BME280;60679;48.888;15.544;2023-03-31T13:21:31;94756.47;;;35.75;35.09
72636;BME280;60679;48.888;15.544;2023-03-31T13:24:20;94745.16;;;26.89;48.62
72636;BME280;60679;48.888;15.544;2023-03-31T13:26:46;94751.06;;;27.68;44.93
72636;BME280;60679;48.888;15.544;2023-03-31T13:34:38;94734.78;;;19.29;59.89
72636;BME280;60679;48.888;15.544;2023-03-31T13:42:52;94738.44;;;19.55;57.23
72636;BME280;60679;48.888;15.544;2023-03-31T13:45:46;94728.31;;;22.97;49.49
72636;BME280;60679;48.888;15.544;2023-03-31T13:48:36;94723.75;;;20.76;53.15
72636;BME280;60679;48.888;15.544;2023-03-31T13:51:28;94710.41;;;20.32;53.78
72636;BME280;60679;48.888;15.544;2023-03-31T14:02:58;94680.22;;;20.40;53.28
72636;BME280;60679;48.888;15.544;2023-03-31T14:05:38;94688.47;;;19.41;54.52
72636;BME280;60679;48.888;15.544;2023-03-31T14:08:08;94698.19;;;18.85;56.08
72636;BME280;60679;48.888;15.544;2023-03-31T14:10:39;94688.91;;;18.20;56.68
72636;BME280;60679;48.888;15.544;2023-03-31T14:13:13;94681.00;;;17.60;58.38
72636;BME280;60679;48.888;15.544;2023-03-31T14:15:45;94682.63;;;16.93;59.47
72636;BME280;60679;48.888;15.544;2023-03-31T14:18:23;94677.38;;;16.51;60.17
72636;BME280;60679;48.888;15.544;2023-03-31T14:28:46;94649.38;;;17.32;57.43
72636;BME280;60679;48.888;15.544;2023-03-31T14:31:34;94648.38;;;16.87;58.55
72636;BME280;60679;48.888;15.544;2023-03-31T14:34:23;94667.59;;;16.17;59.24
72636;BME280;60679;48.888;15.544;2023-03-31T14:37:06;94657.78;;;15.84;60.25
72636;BME280;60679;48.888;15.544;2023-03-31T14:39:53;94657.50;;;15.67;60.19
72636;BME280;60679;48.888;15.544;2023-03-31T14:45:04;94652.06;;;15.67;60.09
72636;BME280;60679;48.888;15.544;2023-03-31T14:47:34;94659.25;;;15.58;60.09
72636;BME280;60679;48.888;15.544;2023-03-31T14:50:02;94658.66;;;15.42;60.13
72636;BME280;60679;48.888;15.544;2023-03-31T14:52:31;94642.59;;;15.22;60.89
72636;BME280;60679;48.888;15.544;2023-03-31T14:54:58;94637.72;;;15.00;61.00
72636;BME280;60679;48.888;15.544;2023-03-31T14:57:29;94650.16;;;14.83;60.96
72636;BME280;60679;48.888;15.544;2023-03-31T14:59:57;94647.00;;;14.76;61.26
72636;BME280;60679;48.888;15.544;2023-03-31T15:02:34;94645.59;;;14.78;61.10
72636;BME280;60679;48.888;15.544;2023-03-31T15:05:20;94617.50;;;14.64;60.90
72636;BME280;60679;48.888;15.544;2023-03-31T15:08:02;94619.06;;;14.47;61.67
72636;BME280;60679;48.888;15.544;2023-03-31T15:10:44;94611.03;;;14.31;62.03
72636;BME280;60679;48.888;15.544;2023-03-31T15:13:29;94604.91;;;14.21;62.34
72636;BME280;60679;48.888;15.544;2023-03-31T15:15:56;94608.69;;;13.96;62.70
72636;BME280;60679;48.888;15.544;2023-03-31T15:18:25;94618.56;;;13.82;62.90
72636;BME280;60679;48.888;15.544;2023-03-31T15:20:52;94624.88;;;13.72;62.99
72636;BME280;60679;48.888;15.544;2023-03-31T15:23:19;94620.38;;;13.58;63.12
72636;BME280;60679;48.888;15.544;2023-03-31T15:26:11;94610.47;;;13.43;63.18
72636;BME280;60679;48.888;15.544;2023-03-31T15:28:49;94603.22;;;13.34;63.07
72636;BME280;60679;48.888;15.544;2023-03-31T15:31:19;94605.22;;;13.18;63.07